sensor_id;sensor_type;location;lat;lon;timestamp;pressure;altitude;pressure_sealevel;temperature;humidity
71384;BME280;67558;52.166;5.004;2023-03-02T00:01:33;102690.78;;;2.96;65.57
71384;BME280;67558;52.166;5.004;2023-03-02T00:04:01;102699.22;;;2.92;66.03
71384;BME280;67558;52.166;5.004;2023-03-02T00:06:28;102701.72;;;2.93;66.89
71384;BME280;67558;52.166;5.004;2023-03-02T00:08:54;102703.53;;;2.93;65.93
71384;BME280;67558;52.166;5.004;2023-03-02T00:11:19;102706.19;;;2.93;65.31
71384;BME280;67558;52.166;5.004;2023-03-02T00:13:45;102694.28;;;2.89;65.37
71384;BME280;67558;52.166;5.004;2023-03-02T00:16:11;102696.59;;;2.92;65.67
71384;BME280;67558;52.166;5.004;2023-03-02T00:18:36;102697.25;;;2.94;65.46
71384;BME280;67558;52.166;5.004;2023-03-02T00:21:01;102699.41;;;2.90;67.42
71384;BME280;67558;52.166;5.004;2023-03-02T00:23:27;102695.94;;;2.90;66.22
71384;BME280;67558;52.166;5.004;2023-03-02T00:25:52;102690.66;;;2.90;66.96
71384;BME280;67558;52.166;5.004;2023-03-02T00:28:18;102703.69;;;2.91;68.05
71384;BME280;67558;52.166;5.004;2023-03-02T00:30:43;102699.91;;;2.94;69.23
71384;BME280;67558;52.166;5.004;2023-03-02T00:33:08;102698.06;;;2.94;69.10
71384;BME280;67558;52.166;5.004;2023-03-02T00:35:40;102671.47;;;2.87;70.98
71384;BME280;67558;52.166;5.004;2023-03-02T00:38:06;102684.03;;;2.94;70.21
71384;BME280;67558;52.166;5.004;2023-03-02T00:40:33;102686.97;;;2.99;69.58
71384;BME280;67558;52.166;5.004;2023-03-02T00:42:59;102678.75;;;2.94;70.37
71384;BME280;67558;52.166;5.004;2023-03-02T00:45:24;102683.66;;;3.05;71.36
71384;BME280;67558;52.166;5.004;2023-03-02T00:47:50;102699.38;;;3.15;69.77
71384;BME280;67558;52.166;5.004;2023-03-02T00:50:15;102643.75;;;2.75;71.38
71384;BME280;67558;52.166;5.004;2023-03-02T00:52:41;102692.91;;;3.17;70.83
71384;BME280;67558;52.166;5.004;2023-03-02T00:55:06;102683.00;;;3.11;71.08
71384;BME280;67558;52.166;5.004;2023-03-02T00:57:33;102694.06;;;3.15;70.24
71384;BME280;67558;52.166;5.004;2023-03-02T00:59:59;102657.59;;;2.94;70.63
71384;BME280;67558;52.166;5.004;2023-03-02T01:02:24;102676.88;;;3.11;71.08
71384;BME280;67558;52.166;5.004;2023-03-02T01:04:50;102686.47;;;3.12;69.96
71384;BME280;67558;52.166;5.004;2023-03-02T01:07:18;102680.19;;;3.13;69.72
71384;BME280;67558;52.166;5.004;2023-03-02T01:09:45;102688.94;;;3.13;69.95
71384;BME280;67558;52.166;5.004;2023-03-02T01:12:12;102674.38;;;3.17;69.74
71384;BME280;67558;52.166;5.004;2023-03-02T01:14:41;102679.16;;;3.22;69.01
71384;BME280;67558;52.166;5.004;2023-03-02T01:17:08;102677.69;;;3.19;69.62
71384;BME280;67558;52.166;5.004;2023-03-02T01:19:34;102680.34;;;3.19;68.67
71384;BME280;67558;52.166;5.004;2023-03-02T01:21:59;102688.63;;;3.16;69.50
71384;BME280;67558;52.166;5.004;2023-03-02T01:24:25;102672.41;;;3.11;69.93
71384;BME280;67558;52.166;5.004;2023-03-02T01:26:50;102682.50;;;3.07;69.66
71384;BME280;67558;52.166;5.004;2023-03-02T01:29:16;102670.97;;;3.00;69.72
71384;BME280;67558;52.166;5.004;2023-03-02T01:31:41;102685.81;;;3.10;68.85
71384;BME280;67558;52.166;5.004;2023-03-02T01:34:07;102665.84;;;2.99;69.62
71384;BME280;67558;52.166;5.004;2023-03-02T01:36:32;102680.03;;;3.06;69.51
71384;BME280;67558;52.166;5.004;2023-03-02T01:38:58;102680.56;;;3.01;69.48
71384;BME280;67558;52.166;5.004;2023-03-02T01:41:23;102682.34;;;3.01;70.65
71384;BME280;67558;52.166;5.004;2023-03-02T01:43:49;102674.63;;;2.99;69.20
71384;BME280;67558;52.166;5.004;2023-03-02T01:51:16;102652.53;;;2.76;70.66
71384;BME280;67558;52.166;5.004;2023-03-02T01:53:44;102672.16;;;2.81;71.05
71384;BME280;67558;52.166;5.004;2023-03-02T01:56:15;102677.13;;;2.76;72.74
71384;BME280;67558;52.166;5.004;2023-03-02T01:58:41;102666.56;;;2.76;70.58
71384;BME280;67558;52.166;5.004;2023-03-02T02:01:08;102676.47;;;2.82;71.48
71384;BME280;67558;52.166;5.004;2023-03-02T02:03:41;102681.06;;;2.89;70.16
71384;BME280;67558;52.166;5.004;2023-03-02T02:06:22;102671.97;;;2.91;71.73
71384;BME280;67558;52.166;5.004;2023-03-02T02:08:50;102669.84;;;2.95;71.13
71384;BME280;67558;52.166;5.004;2023-03-02T02:11:16;102673.09;;;2.97;70.85
71384;BME280;67558;52.166;5.004;2023-03-02T02:13:43;102646.38;;;2.83;70.96
71384;BME280;67558;52.166;5.004;2023-03-02T02:16:08;102674.63;;;2.99;71.24
71384;BME280;67558;52.166;5.004;2023-03-02T02:18:37;102668.16;;;3.02;70.88
71384;BME280;67558;52.166;5.004;2023-03-02T02:21:03;102649.00;;;2.92;70.87
71384;BME280;67558;52.166;5.004;2023-03-02T02:24:11;102655.44;;;2.97;70.98
71384;BME280;67558;52.166;5.004;2023-03-02T02:26:46;102640.56;;;2.96;70.64
71384;BME280;67558;52.166;5.004;2023-03-02T02:29:15;102646.50;;;2.98;70.63
71384;BME280;67558;52.166;5.004;2023-03-02T02:32:07;102645.84;;;2.96;71.14
71384;BME280;67558;52.166;5.004;2023-03-02T02:35:00;102635.78;;;2.92;70.60
71384;BME280;67558;52.166;5.004;2023-03-02T02:37:40;102645.88;;;2.88;71.20
71384;BME280;67558;52.166;5.004;2023-03-02T02:40:13;102656.28;;;2.90;71.24
71384;BME280;67558;52.166;5.004;2023-03-02T02:42:45;102640.44;;;2.81;71.53
71384;BME280;67558;52.166;5.004;2023-03-02T02:45:30;102643.13;;;2.73;71.87
71384;BME280;67558;52.166;5.004;2023-03-02T02:47:56;102633.22;;;2.67;71.73
71384;BME280;67558;52.166;5.004;2023-03-02T02:50:29;102647.75;;;2.71;71.79
71384;BME280;67558;52.166;5.004;2023-03-02T02:52:59;102642.94;;;2.66;71.63
71384;BME280;67558;52.166;5.004;2023-03-02T02:55:25;102630.56;;;2.67;71.48
71384;BME280;67558;52.166;5.004;2023-03-02T02:57:53;102632.56;;;2.65;72.31
71384;BME280;67558;52.166;5.004;2023-03-02T03:00:20;102613.56;;;2.53;71.96
71384;BME280;67558;52.166;5.004;2023-03-02T03:02:51;102619.50;;;2.63;71.82
71384;BME280;67558;52.166;5.004;2023-03-02T03:05:18;102620.00;;;2.67;70.96
71384;BME280;67558;52.166;5.004;2023-03-02T03:07:43;102619.34;;;2.65;71.43
71384;BME280;67558;52.166;5.004;2023-03-02T03:10:25;102619.66;;;2.62;71.81
71384;BME280;67558;52.166;5.004;2023-03-02T03:12:52;102621.31;;;2.63;71.43
71384;BME280;67558;52.166;5.004;2023-03-02T03:15:18;102618.69;;;2.63;71.10
71384;BME280;67558;52.166;5.004;2023-03-02T03:17:56;102616.72;;;2.57;71.41
71384;BME280;67558;52.166;5.004;2023-03-02T03:20:23;102626.94;;;2.60;71.54
71384;BME280;67558;52.166;5.004;2023-03-02T03:22:48;102616.38;;;2.52;71.38
71384;BME280;67558;52.166;5.004;2023-03-02T03:25:14;102621.50;;;2.53;72.14
71384;BME280;67558;52.166;5.004;2023-03-02T03:27:41;102627.28;;;2.57;72.46
71384;BME280;67558;52.166;5.004;2023-03-02T03:30:09;102611.09;;;2.52;71.66
71384;BME280;67558;52.166;5.004;2023-03-02T03:32:35;102614.38;;;2.54;72.43
71384;BME280;67558;52.166;5.004;2023-03-02T03:35:01;102620.66;;;2.53;72.70
71384;BME280;67558;52.166;5.004;2023-03-02T03:37:27;102620.50;;;2.54;72.19
71384;BME280;67558;52.166;5.004;2023-03-02T03:39:53;102627.78;;;2.52;72.21
71384;BME280;67558;52.166;5.004;2023-03-02T03:42:18;102628.44;;;2.54;71.97
71384;BME280;67558;52.166;5.004;2023-03-02T03:44:44;102630.75;;;2.49;72.14
71384;BME280;67558;52.166;5.004;2023-03-02T03:47:09;102629.09;;;2.48;72.33
71384;BME280;67558;52.166;5.004;2023-03-02T03:49:34;102620.34;;;2.39;71.59
71384;BME280;67558;52.166;5.004;2023-03-02T03:52:00;102631.09;;;2.46;72.59
71384;BME280;67558;52.166;5.004;2023-03-02T03:54:25;102631.41;;;2.43;71.96
71384;BME280;67558;52.166;5.004;2023-03-02T03:56:50;102635.03;;;2.50;71.08
71384;BME280;67558;52.166;5.004;2023-03-02T03:59:19;102637.53;;;2.43;71.60
71384;BME280;67558;52.166;5.004;2023-03-02T04:01:50;102635.72;;;2.44;72.23
71384;BME280;67558;52.166;5.004;2023-03-02T04:04:22;102630.94;;;2.39;72.08
71384;BME280;67558;52.166;5.004;2023-03-02T04:06:48;102639.50;;;2.41;72.44
71384;BME280;67558;52.166;5.004;2023-03-02T04:09:13;102628.78;;;2.35;72.26
71384;BME280;67558;52.166;5.004;2023-03-02T04:11:42;102629.75;;;2.34;72.39
71384;BME280;67558;52.166;5.004;2023-03-02T04:14:08;102625.28;;;2.34;71.91
71384;BME280;67558;52.166;5.004;2023-03-02T04:16:35;102626.31;;;2.33;71.86
71384;BME280;67558;52.166;5.004;2023-03-02T04:19:00;102622.19;;;2.31;71.90
71384;BME280;67558;52.166;5.004;2023-03-02T04:21:26;102603.69;;;2.14;71.75
71384;BME280;67558;52.166;5.004;2023-03-02T04:23:52;102622.03;;;2.24;72.50
71384;BME280;67558;52.166;5.004;2023-03-02T04:26:18;102615.88;;;2.23;72.17
71384;BME280;67558;52.166;5.004;2023-03-02T04:28:43;102616.56;;;2.25;72.12
71384;BME280;67558;52.166;5.004;2023-03-02T04:31:08;102612.13;;;2.26;71.20
71384;BME280;67558;52.166;5.004;2023-03-02T04:33:34;102615.75;;;2.33;71.18
71384;BME280;67558;52.166;5.004;2023-03-02T04:35:59;102619.03;;;2.27;71.69
71384;BME280;67558;52.166;5.004;2023-03-02T04:38:25;102623.34;;;2.28;71.56
71384;BME280;67558;52.166;5.004;2023-03-02T04:40:56;102615.56;;;2.27;71.18
71384;BME280;67558;52.166;5.004;2023-03-02T04:43:22;102618.72;;;2.22;70.80
71384;BME280;67558;52.166;5.004;2023-03-02T04:45:48;102629.94;;;2.24;70.69
71384;BME280;67558;52.166;5.004;2023-03-02T04:48:14;102631.91;;;2.22;70.84
71384;BME280;67558;52.166;5.004;2023-03-02T04:50:39;102626.28;;;2.17;71.23
71384;BME280;67558;52.166;5.004;2023-03-02T04:53:05;102629.28;;;2.14;71.08
71384;BME280;67558;52.166;5.004;2023-03-02T04:55:30;102623.47;;;2.02;71.57
71384;BME280;67558;52.166;5.004;2023-03-02T04:57:56;102635.88;;;2.10;71.54
71384;BME280;67558;52.166;5.004;2023-03-02T05:00:21;102635.06;;;2.09;70.65
71384;BME280;67558;52.166;5.004;2023-03-02T05:02:47;102630.56;;;2.01;72.29
71384;BME280;67558;52.166;5.004;2023-03-02T05:05:18;102632.72;;;2.06;71.49
71384;BME280;67558;52.166;5.004;2023-03-02T05:07:44;102627.28;;;2.08;71.97
71384;BME280;67558;52.166;5.004;2023-03-02T05:10:11;102627.28;;;2.08;71.39
71384;BME280;67558;52.166;5.004;2023-03-02T05:12:36;102617.72;;;2.07;71.27
71384;BME280;67558;52.166;5.004;2023-03-02T05:15:43;102616.06;;;1.97;72.22
71384;BME280;67558;52.166;5.004;2023-03-02T05:18:10;102616.88;;;1.98;71.57
71384;BME280;67558;52.166;5.004;2023-03-02T05:20:37;102612.41;;;1.90;72.84
71384;BME280;67558;52.166;5.004;2023-03-02T05:23:06;102620.00;;;1.93;72.56
71384;BME280;67558;52.166;5.004;2023-03-02T05:25:34;102610.97;;;1.96;71.96
71384;BME280;67558;52.166;5.004;2023-03-02T05:28:00;102604.16;;;1.93;71.89
71384;BME280;67558;52.166;5.004;2023-03-02T05:30:26;102606.00;;;2.01;71.91
71384;BME280;67558;52.166;5.004;2023-03-02T05:32:52;102609.94;;;1.97;72.81
71384;BME280;67558;52.166;5.004;2023-03-02T05:35:20;102617.38;;;2.01;72.78
71384;BME280;67558;52.166;5.004;2023-03-02T05:37:46;102609.81;;;2.07;72.37
71384;BME280;67558;52.166;5.004;2023-03-02T05:40:14;102610.94;;;2.04;72.92
71384;BME280;67558;52.166;5.004;2023-03-02T05:42:41;102610.13;;;2.03;72.32
71384;BME280;67558;52.166;5.004;2023-03-02T05:45:12;102611.78;;;2.04;72.86
71384;BME280;67558;52.166;5.004;2023-03-02T05:47:40;102608.66;;;2.09;73.19
71384;BME280;67558;52.166;5.004;2023-03-02T05:50:05;102602.72;;;2.07;73.18
71384;BME280;67558;52.166;5.004;2023-03-02T05:52:31;102604.03;;;2.11;72.33
71384;BME280;67558;52.166;5.004;2023-03-02T05:54:56;102603.84;;;2.13;72.38
71384;BME280;67558;52.166;5.004;2023-03-02T05:57:22;102619.88;;;2.11;72.27
71384;BME280;67558;52.166;5.004;2023-03-02T05:59:48;102608.13;;;2.05;72.11
71384;BME280;67558;52.166;5.004;2023-03-02T06:02:15;102620.84;;;2.10;71.60
71384;BME280;67558;52.166;5.004;2023-03-02T06:04:40;102628.91;;;2.09;72.04
71384;BME280;67558;52.166;5.004;2023-03-02T06:07:08;102626.94;;;2.11;71.71
71384;BME280;67558;52.166;5.004;2023-03-02T06:09:34;102640.31;;;2.09;71.85
71384;BME280;67558;52.166;5.004;2023-03-02T06:11:59;102617.38;;;2.01;72.99
71384;BME280;67558;52.166;5.004;2023-03-02T06:14:24;102632.06;;;2.04;72.12
71384;BME280;67558;52.166;5.004;2023-03-02T06:16:50;102633.56;;;1.98;72.32
71384;BME280;67558;52.166;5.004;2023-03-02T06:19:15;102626.28;;;1.92;72.70
71384;BME280;67558;52.166;5.004;2023-03-02T06:21:40;102639.31;;;2.02;72.25
71384;BME280;67558;52.166;5.004;2023-03-02T06:24:06;102635.53;;;1.96;72.12
71384;BME280;67558;52.166;5.004;2023-03-02T06:26:31;102636.19;;;1.98;72.30
71384;BME280;67558;52.166;5.004;2023-03-02T06:28:57;102643.59;;;1.95;72.65
71384;BME280;67558;52.166;5.004;2023-03-02T06:31:22;102648.38;;;1.91;73.11
71384;BME280;67558;52.166;5.004;2023-03-02T06:33:48;102644.88;;;1.82;73.39
71384;BME280;67558;52.166;5.004;2023-03-02T06:36:13;102654.97;;;1.87;73.04
71384;BME280;67558;52.166;5.004;2023-03-02T06:38:41;102652.66;;;1.84;73.05
71384;BME280;67558;52.166;5.004;2023-03-02T06:41:06;102644.59;;;1.86;73.55
71384;BME280;67558;52.166;5.004;2023-03-02T06:43:31;102657.28;;;1.90;73.30
71384;BME280;67558;52.166;5.004;2023-03-02T06:45:57;102653.50;;;1.93;73.16
71384;BME280;67558;52.166;5.004;2023-03-02T06:48:24;102656.78;;;1.87;73.60
71384;BME280;67558;52.166;5.004;2023-03-02T06:50:50;102661.75;;;1.90;73.17
71384;BME280;67558;52.166;5.004;2023-03-02T06:53:15;102654.34;;;2.01;72.38
71384;BME280;67558;52.166;5.004;2023-03-02T06:55:42;102666.56;;;2.02;72.84
71384;BME280;67558;52.166;5.004;2023-03-02T06:58:07;102657.31;;;2.07;72.29
71384;BME280;67558;52.166;5.004;2023-03-02T07:00:37;102671.00;;;2.10;72.34
71384;BME280;67558;52.166;5.004;2023-03-02T07:03:02;102665.41;;;2.13;71.93
71384;BME280;67558;52.166;5.004;2023-03-02T07:05:28;102665.91;;;2.17;72.27
71384;BME280;67558;52.166;5.004;2023-03-02T07:07:59;102672.66;;;2.19;71.93
71384;BME280;67558;52.166;5.004;2023-03-02T07:10:25;102655.00;;;2.12;72.56
71384;BME280;67558;52.166;5.004;2023-03-02T07:12:51;102667.22;;;2.21;72.39
71384;BME280;67558;52.166;5.004;2023-03-02T07:15:18;102665.25;;;2.23;72.17
71384;BME280;67558;52.166;5.004;2023-03-02T07:17:44;102662.44;;;2.24;72.21
71384;BME280;67558;52.166;5.004;2023-03-02T07:20:15;102647.75;;;2.14;72.21
71384;BME280;67558;52.166;5.004;2023-03-02T07:22:41;102660.47;;;2.27;71.70
71384;BME280;67558;52.166;5.004;2023-03-02T07:25:07;102654.84;;;2.21;72.48
71384;BME280;67558;52.166;5.004;2023-03-02T07:27:33;102659.63;;;2.34;72.82
71384;BME280;67558;52.166;5.004;2023-03-02T07:29:59;102654.19;;;2.36;72.00
71384;BME280;67558;52.166;5.004;2023-03-02T07:32:24;102655.00;;;2.44;72.56
71384;BME280;67558;52.166;5.004;2023-03-02T07:34:49;102658.31;;;2.55;72.44
71384;BME280;67558;52.166;5.004;2023-03-02T07:37:15;102658.47;;;2.61;71.57
71384;BME280;67558;52.166;5.004;2023-03-02T07:39:40;102650.38;;;2.71;72.32
71384;BME280;67558;52.166;5.004;2023-03-02T07:42:05;102660.75;;;2.81;72.28
71384;BME280;67558;52.166;5.004;2023-03-02T07:44:33;102656.94;;;2.92;71.49
71384;BME280;67558;52.166;5.004;2023-03-02T07:46:59;102651.66;;;2.92;71.34
71384;BME280;67558;52.166;5.004;2023-03-02T07:49:24;102656.28;;;2.90;71.33
71384;BME280;67558;52.166;5.004;2023-03-02T07:51:49;102648.34;;;2.98;71.71
71384;BME280;67558;52.166;5.004;2023-03-02T07:54:15;102647.97;;;3.09;71.55
71384;BME280;67558;52.166;5.004;2023-03-02T07:56:40;102651.41;;;3.18;71.54
71384;BME280;67558;52.166;5.004;2023-03-02T07:59:06;102650.88;;;3.31;71.55
71384;BME280;67558;52.166;5.004;2023-03-02T08:01:31;102644.47;;;3.25;71.22
71384;BME280;67558;52.166;5.004;2023-03-02T08:03:56;102652.44;;;3.48;71.44
71384;BME280;67558;52.166;5.004;2023-03-02T08:06:22;102661.25;;;3.72;70.73
71384;BME280;67558;52.166;5.004;2023-03-02T08:08:47;102638.19;;;3.80;70.37
71384;BME280;67558;52.166;5.004;2023-03-02T08:11:15;102637.25;;;4.04;70.02
71384;BME280;67558;52.166;5.004;2023-03-02T08:13:41;102643.75;;;4.17;69.44
71384;BME280;67558;52.166;5.004;2023-03-02T08:16:09;102639.31;;;4.32;69.22
71384;BME280;67558;52.166;5.004;2023-03-02T08:18:35;102638.59;;;4.38;67.46
71384;BME280;67558;52.166;5.004;2023-03-02T08:21:01;102640.53;;;4.44;67.90
71384;BME280;67558;52.166;5.004;2023-03-02T08:23:27;102636.47;;;4.57;68.21
71384;BME280;67558;52.166;5.004;2023-03-02T08:25:53;102645.72;;;4.61;67.44
71384;BME280;67558;52.166;5.004;2023-03-02T08:28:20;102633.75;;;4.65;67.48
71384;BME280;67558;52.166;5.004;2023-03-02T08:30:54;102647.75;;;4.88;64.91
71384;BME280;67558;52.166;5.004;2023-03-02T08:33:20;102640.25;;;5.07;65.79
71384;BME280;67558;52.166;5.004;2023-03-02T08:38:21;102643.06;;;5.05;64.74
71384;BME280;67558;52.166;5.004;2023-03-02T08:40:46;102648.59;;;5.04;64.46
71384;BME280;67558;52.166;5.004;2023-03-02T08:43:11;102643.53;;;5.09;63.87
71384;BME280;67558;52.166;5.004;2023-03-02T08:45:37;102639.91;;;5.10;63.46
71384;BME280;67558;52.166;5.004;2023-03-02T08:48:02;102646.66;;;5.12;63.56
71384;BME280;67558;52.166;5.004;2023-03-02T08:50:28;102637.41;;;5.08;63.91
71384;BME280;67558;52.166;5.004;2023-03-02T08:52:53;102634.28;;;5.05;63.51
71384;BME280;67558;52.166;5.004;2023-03-02T08:55:18;102639.59;;;5.05;63.81
71384;BME280;67558;52.166;5.004;2023-03-02T08:57:44;102638.78;;;5.04;63.72
71384;BME280;67558;52.166;5.004;2023-03-02T09:00:09;102640.63;;;5.04;63.47
71384;BME280;67558;52.166;5.004;2023-03-02T09:02:39;102648.50;;;4.97;63.71
71384;BME280;67558;52.166;5.004;2023-03-02T09:05:04;102648.41;;;4.90;63.32
71384;BME280;67558;52.166;5.004;2023-03-02T09:07:30;102643.34;;;4.96;63.51
71384;BME280;67558;52.166;5.004;2023-03-02T09:09:55;102630.44;;;4.92;63.67
71384;BME280;67558;52.166;5.004;2023-03-02T09:12:20;102632.19;;;5.00;63.97
71384;BME280;67558;52.166;5.004;2023-03-02T09:14:46;102633.19;;;5.14;63.70
71384;BME280;67558;52.166;5.004;2023-03-02T09:17:11;102642.72;;;5.23;63.44
71384;BME280;67558;52.166;5.004;2023-03-02T09:19:40;102636.13;;;5.19;63.54
71384;BME280;67558;52.166;5.004;2023-03-02T09:22:07;102653.03;;;5.18;63.54
71384;BME280;67558;52.166;5.004;2023-03-02T09:24:33;102657.81;;;5.08;64.19
71384;BME280;67558;52.166;5.004;2023-03-02T09:26:59;102639.88;;;4.95;64.61
71384;BME280;67558;52.166;5.004;2023-03-02T09:29:24;102646.19;;;5.09;64.17
71384;BME280;67558;52.166;5.004;2023-03-02T09:31:50;102649.78;;;5.01;64.40
71384;BME280;67558;52.166;5.004;2023-03-02T09:34:15;102646.00;;;5.10;64.19
71384;BME280;67558;52.166;5.004;2023-03-02T09:36:40;102655.69;;;5.03;64.37
71384;BME280;67558;52.166;5.004;2023-03-02T09:39:06;102645.53;;;4.92;64.81
71384;BME280;67558;52.166;5.004;2023-03-02T09:46:36;102649.56;;;5.03;64.81
71384;BME280;67558;52.166;5.004;2023-03-02T09:49:26;102651.97;;;5.12;64.54
71384;BME280;67558;52.166;5.004;2023-03-02T09:54:51;102643.78;;;5.14;64.95
71384;BME280;67558;52.166;5.004;2023-03-02T09:57:21;102656.25;;;5.13;65.03
71384;BME280;67558;52.166;5.004;2023-03-02T09:59:54;102648.38;;;5.20;64.77
71384;BME280;67558;52.166;5.004;2023-03-02T10:02:28;102648.66;;;5.25;64.79
71384;BME280;67558;52.166;5.004;2023-03-02T10:04:58;102646.66;;;5.27;64.94
71384;BME280;67558;52.166;5.004;2023-03-02T10:07:29;102645.91;;;5.33;64.82
71384;BME280;67558;52.166;5.004;2023-03-02T10:13:00;102632.16;;;5.45;64.49
71384;BME280;67558;52.166;5.004;2023-03-02T10:15:35;102638.28;;;5.45;64.96
71384;BME280;67558;52.166;5.004;2023-03-02T10:20:44;102639.88;;;5.61;64.87
71384;BME280;67558;52.166;5.004;2023-03-02T10:26:19;102642.19;;;5.64;64.64
71384;BME280;67558;52.166;5.004;2023-03-02T10:28:50;102637.44;;;5.60;64.63
71384;BME280;67558;52.166;5.004;2023-03-02T10:31:27;102635.84;;;5.65;64.35
71384;BME280;67558;52.166;5.004;2023-03-02T10:33:53;102635.50;;;5.68;64.90
71384;BME280;67558;52.166;5.004;2023-03-02T10:36:48;102633.00;;;5.67;64.63
71384;BME280;67558;52.166;5.004;2023-03-02T10:39:15;102624.38;;;5.80;64.41
71384;BME280;67558;52.166;5.004;2023-03-02T10:42:01;102624.81;;;5.83;64.49
71384;BME280;67558;52.166;5.004;2023-03-02T10:44:30;102621.47;;;5.74;64.21
71384;BME280;67558;52.166;5.004;2023-03-02T10:46:57;102622.16;;;5.98;63.44
71384;BME280;67558;52.166;5.004;2023-03-02T10:49:25;102626.50;;;5.91;63.61
71384;BME280;67558;52.166;5.004;2023-03-02T10:55:00;102620.69;;;5.81;64.54
71384;BME280;67558;52.166;5.004;2023-03-02T10:57:38;102625.63;;;5.84;64.19
71384;BME280;67558;52.166;5.004;2023-03-02T11:02:47;102604.53;;;5.97;64.68
71384;BME280;67558;52.166;5.004;2023-03-02T11:07:51;102604.41;;;6.05;64.40
71384;BME280;67558;52.166;5.004;2023-03-02T11:10:22;102615.41;;;6.02;64.58
71384;BME280;67558;52.166;5.004;2023-03-02T11:12:50;102598.59;;;5.95;64.58
71384;BME280;67558;52.166;5.004;2023-03-02T11:18:24;102608.00;;;5.98;64.73
71384;BME280;67558;52.166;5.004;2023-03-02T11:20:53;102592.75;;;6.06;64.63
71384;BME280;67558;52.166;5.004;2023-03-02T11:23:29;102581.59;;;6.11;63.89
71384;BME280;67558;52.166;5.004;2023-03-02T11:26:05;102588.06;;;6.30;63.60
71384;BME280;67558;52.166;5.004;2023-03-02T11:28:47;102592.56;;;6.29;63.96
71384;BME280;67558;52.166;5.004;2023-03-02T11:31:39;102592.59;;;6.36;63.77
71384;BME280;67558;52.166;5.004;2023-03-02T11:34:21;102592.00;;;6.41;62.65
71384;BME280;67558;52.166;5.004;2023-03-02T11:37:20;102590.19;;;6.41;62.71
71384;BME280;67558;52.166;5.004;2023-03-02T11:42:18;102587.22;;;6.57;62.58
71384;BME280;67558;52.166;5.004;2023-03-02T11:44:45;102593.00;;;6.61;62.03
71384;BME280;67558;52.166;5.004;2023-03-02T11:47:11;102585.69;;;6.70;62.11
71384;BME280;67558;52.166;5.004;2023-03-02T11:49:59;102593.50;;;6.78;61.99
71384;BME280;67558;52.166;5.004;2023-03-02T11:52:26;102586.56;;;6.84;61.08
71384;BME280;67558;52.166;5.004;2023-03-02T11:55:15;102586.84;;;6.95;61.03
71384;BME280;67558;52.166;5.004;2023-03-02T11:57:45;102571.13;;;7.14;59.82
71384;BME280;67558;52.166;5.004;2023-03-02T12:02:39;102561.75;;;7.18;59.88
71384;BME280;67558;52.166;5.004;2023-03-02T12:05:26;102571.22;;;7.34;59.76
71384;BME280;67558;52.166;5.004;2023-03-02T12:08:04;102566.31;;;7.44;59.55
71384;BME280;67558;52.166;5.004;2023-03-02T12:10:39;102553.00;;;7.37;59.70
71384;BME280;67558;52.166;5.004;2023-03-02T12:13:17;102554.47;;;7.47;59.74
71384;BME280;67558;52.166;5.004;2023-03-02T12:15:48;102557.97;;;7.54;60.06
71384;BME280;67558;52.166;5.004;2023-03-02T12:18:42;102553.69;;;7.59;59.41
71384;BME280;67558;52.166;5.004;2023-03-02T12:21:10;102565.53;;;7.57;59.79
71384;BME280;67558;52.166;5.004;2023-03-02T12:23:52;102550.59;;;7.56;59.74
71384;BME280;67558;52.166;5.004;2023-03-02T12:28:58;102544.66;;;7.67;58.94
71384;BME280;67558;52.166;5.004;2023-03-02T12:31:24;102549.59;;;7.70;59.03
71384;BME280;67558;52.166;5.004;2023-03-02T12:33:51;102553.50;;;7.74;58.36
71384;BME280;67558;52.166;5.004;2023-03-02T12:36:27;102543.03;;;7.79;58.83
71384;BME280;67558;52.166;5.004;2023-03-02T12:41:41;102539.56;;;7.92;58.93
71384;BME280;67558;52.166;5.004;2023-03-02T12:46:58;102534.66;;;7.96;57.87
71384;BME280;67558;52.166;5.004;2023-03-02T12:49:50;102535.66;;;8.02;57.66
71384;BME280;67558;52.166;5.004;2023-03-02T12:52:21;102529.72;;;8.06;57.95
71384;BME280;67558;52.166;5.004;2023-03-02T12:57:30;102536.47;;;8.15;57.04
71384;BME280;67558;52.166;5.004;2023-03-02T12:59:58;102523.75;;;8.11;56.77
71384;BME280;67558;52.166;5.004;2023-03-02T13:02:27;102527.06;;;8.19;57.39
71384;BME280;67558;52.166;5.004;2023-03-02T13:04:59;102520.25;;;8.24;57.09
71384;BME280;67558;52.166;5.004;2023-03-02T13:07:57;102520.88;;;8.26;56.27
71384;BME280;67558;52.166;5.004;2023-03-02T13:10:38;102510.41;;;8.37;57.00
71384;BME280;67558;52.166;5.004;2023-03-02T13:13:20;102516.34;;;8.46;56.82
71384;BME280;67558;52.166;5.004;2023-03-02T13:18:17;102510.81;;;8.54;56.90
71384;BME280;67558;52.166;5.004;2023-03-02T13:20:43;102503.38;;;8.63;56.54
71384;BME280;67558;52.166;5.004;2023-03-02T13:23:12;102501.09;;;8.67;56.48
71384;BME280;67558;52.166;5.004;2023-03-02T13:25:55;102495.75;;;8.67;56.13
71384;BME280;67558;52.166;5.004;2023-03-02T13:31:19;102504.00;;;8.65;55.54
71384;BME280;67558;52.166;5.004;2023-03-02T13:33:46;102478.19;;;8.52;55.63
71384;BME280;67558;52.166;5.004;2023-03-02T13:36:19;102496.59;;;8.67;55.45
71384;BME280;67558;52.166;5.004;2023-03-02T13:38:48;102489.81;;;8.71;55.32
71384;BME280;67558;52.166;5.004;2023-03-02T13:41:34;102498.19;;;8.75;55.23
71384;BME280;67558;52.166;5.004;2023-03-02T13:44:30;102487.97;;;8.72;54.93
71384;BME280;67558;52.166;5.004;2023-03-02T13:46:57;102490.56;;;8.85;54.97
71384;BME280;67558;52.166;5.004;2023-03-02T13:49:34;102495.53;;;8.75;54.04
71384;BME280;67558;52.166;5.004;2023-03-02T13:54:31;102501.69;;;8.82;54.08
71384;BME280;67558;52.166;5.004;2023-03-02T13:56:58;102486.84;;;8.86;54.54
71384;BME280;67558;52.166;5.004;2023-03-02T13:59:25;102468.63;;;8.83;54.43
71384;BME280;67558;52.166;5.004;2023-03-02T14:01:51;102481.28;;;8.94;54.37
71384;BME280;67558;52.166;5.004;2023-03-02T14:04:18;102465.25;;;8.94;54.30
71384;BME280;67558;52.166;5.004;2023-03-02T14:06:48;102481.28;;;8.94;53.95
71384;BME280;67558;52.166;5.004;2023-03-02T14:09:13;102466.66;;;9.04;53.94